GOW870 VOMM-VEPT
Flight info
| Callsign | GOW870 |
|---|---|
| Flight time | 2h 12m |
| Altitude | 37000 |
| Route | DOKET2A DOKET A465 VVZ J26 MALSU/N0450F360 J27 RRC/N0386F240 W106 PPT |
| Aircraft | A320/M-SDE3FGHIRWY/LB1 |
Departure
| Time | 2026-05-05 13:46 |
|---|---|
| Airport | Chennai International Airport (VOMM) |
Arrival
| Time | 2026-05-05 15:58 |
|---|---|
| Airport | Jay Prakash Narayan Airport (VEPT) |
| Time | Latitude | Longitude | Altitude | Speed | Heading |
|---|---|---|---|---|---|
| 2026-05-05 12:57 | 12.98280 | 80.16184 | 55 ft | 0 kts | 158° |
| 2026-05-05 13:38 | 12.98285 | 80.16183 | 55 ft | 3 kts | 158° |
| 2026-05-05 13:38 | 12.98302 | 80.16176 | 49 ft | 3 kts | 158° |
| 2026-05-05 13:38 | 12.98319 | 80.16169 | 53 ft | 3 kts | 158° |
| 2026-05-05 13:38 | 12.98336 | 80.16161 | 47 ft | 3 kts | 167° |
| 2026-05-05 13:39 | 12.98355 | 80.16162 | 50 ft | 3 kts | 210° |
| 2026-05-05 13:39 | 12.98368 | 80.16176 | 47 ft | 3 kts | 253° |
| 2026-05-05 13:39 | 12.98372 | 80.16192 | 51 ft | 0 kts | 260° |
| 2026-05-05 13:40 | 12.98367 | 80.16163 | 47 ft | 7 kts | 260° |
| 2026-05-05 13:40 | 12.98355 | 80.16094 | 48 ft | 13 kts | 259° |
| 2026-05-05 13:41 | 12.98323 | 80.16011 | 51 ft | 10 kts | 248° |
| 2026-05-05 13:41 | 12.98292 | 80.15941 | 52 ft | 9 kts | 257° |
| 2026-05-05 13:41 | 12.98291 | 80.15900 | 54 ft | 3 kts | 274° |
| 2026-05-05 13:41 | 12.98292 | 80.15891 | 54 ft | 0 kts | 276° |
| 2026-05-05 13:42 | 12.98298 | 80.15869 | 54 ft | 7 kts | 288° |
| 2026-05-05 13:42 | 12.98326 | 80.15787 | 53 ft | 17 kts | 289° |
| 2026-05-05 13:42 | 12.98365 | 80.15642 | 53 ft | 25 kts | 282° |
| 2026-05-05 13:42 | 12.98388 | 80.15556 | 48 ft | 0 kts | 288° |
| 2026-05-05 13:44 | 12.98390 | 80.15547 | 48 ft | 4 kts | 282° |
| 2026-05-05 13:44 | 12.98409 | 80.15482 | 51 ft | 8 kts | 293° |
| 2026-05-05 13:45 | 12.98446 | 80.15456 | 51 ft | 5 kts | 354° |
| 2026-05-05 13:45 | 12.98480 | 80.15481 | 52 ft | 14 kts | 61° |
| 2026-05-05 13:45 | 12.98583 | 80.15775 | 53 ft | 84 kts | 67° |
| 2026-05-05 13:45 | 12.98905 | 80.16601 | 56 ft | 164 kts | 70° |
| 2026-05-05 13:46 | 12.99418 | 80.17931 | 116 ft | 234 kts | 70° |
| 2026-05-05 13:46 | 13.00072 | 80.19617 | 749 ft | 263 kts | 68° |
| 2026-05-05 13:46 | 13.01204 | 80.20925 | 2495 ft | 251 kts | 31° |
| 2026-05-05 13:46 | 13.02860 | 80.21627 | 3639 ft | 265 kts | 20° |
| 2026-05-05 13:47 | 13.04690 | 80.22303 | 4259 ft | 300 kts | 21° |
| 2026-05-05 13:47 | 13.06755 | 80.23175 | 4627 ft | 342 kts | 24° |
| 2026-05-05 13:47 | 13.09042 | 80.24285 | 4833 ft | 385 kts | 26° |
| 2026-05-05 13:47 | 13.11539 | 80.25616 | 4924 ft | 425 kts | 28° |
| 2026-05-05 13:48 | 13.14240 | 80.27144 | 4966 ft | 461 kts | 29° |
| 2026-05-05 13:48 | 13.17117 | 80.28836 | 4984 ft | 491 kts | 30° |
| 2026-05-05 13:48 | 13.20141 | 80.30657 | 4993 ft | 517 kts | 31° |
| 2026-05-05 13:48 | 13.23252 | 80.32563 | 4996 ft | 538 kts | 31° |
| 2026-05-05 13:49 | 13.26504 | 80.34577 | 5006 ft | 555 kts | 31° |
| 2026-05-05 13:49 | 13.29823 | 80.36649 | 5010 ft | 559 kts | 31° |
| 2026-05-05 13:49 | 13.33139 | 80.38732 | 5011 ft | 559 kts | 31° |
| 2026-05-05 13:49 | 13.36458 | 80.40827 | 5017 ft | 560 kts | 32° |
| 2026-05-05 13:50 | 13.39768 | 80.42925 | 5014 ft | 560 kts | 32° |
| 2026-05-05 13:50 | 13.43063 | 80.45021 | 5011 ft | 535 kts | 32° |
| 2026-05-05 13:50 | 13.46161 | 80.46998 | 5020 ft | 533 kts | 32° |
| 2026-05-05 13:50 | 13.49323 | 80.49023 | 5020 ft | 551 kts | 32° |
| 2026-05-05 13:51 | 13.52611 | 80.51133 | 5016 ft | 560 kts | 32° |
| 2026-05-05 13:51 | 13.55855 | 80.53216 | 6464 ft | 525 kts | 32° |
| 2026-05-05 13:51 | 13.58798 | 80.55106 | 9596 ft | 476 kts | 32° |
| 2026-05-05 13:51 | 13.61506 | 80.56855 | 12044 ft | 447 kts | 33° |
| 2026-05-05 13:52 | 13.64073 | 80.58520 | 13997 ft | 426 kts | 33° |
| 2026-05-05 13:52 | 13.66528 | 80.60131 | 15558 ft | 412 kts | 32° |
| 2026-05-05 13:52 | 13.68949 | 80.61727 | 16454 ft | 418 kts | 32° |
| 2026-05-05 13:52 | 13.71388 | 80.63333 | 17228 ft | 424 kts | 32° |
| 2026-05-05 13:53 | 13.73891 | 80.64977 | 18012 ft | 430 kts | 31° |
| 2026-05-05 13:53 | 13.76429 | 80.66640 | 18700 ft | 435 kts | 31° |
| 2026-05-05 13:53 | 13.79001 | 80.68320 | 19344 ft | 440 kts | 31° |
| 2026-05-05 13:53 | 13.81600 | 80.70012 | 19982 ft | 445 kts | 31° |
| 2026-05-05 13:54 | 13.84234 | 80.71725 | 20619 ft | 450 kts | 31° |
| 2026-05-05 13:54 | 13.86899 | 80.73459 | 21220 ft | 456 kts | 31° |
| 2026-05-05 13:54 | 13.89594 | 80.75213 | 21833 ft | 461 kts | 31° |
| 2026-05-05 13:54 | 13.92316 | 80.76983 | 22408 ft | 465 kts | 31° |
| 2026-05-05 13:55 | 13.95030 | 80.78749 | 22854 ft | 470 kts | 32° |
| 2026-05-05 13:55 | 13.97804 | 80.80554 | 23326 ft | 474 kts | 32° |
| 2026-05-05 13:55 | 14.00598 | 80.82373 | 23740 ft | 477 kts | 32° |
| 2026-05-05 13:55 | 14.03408 | 80.84204 | 24154 ft | 480 kts | 32° |
| 2026-05-05 13:56 | 14.06237 | 80.86048 | 24555 ft | 482 kts | 32° |
| 2026-05-05 13:56 | 14.09082 | 80.87902 | 24949 ft | 485 kts | 32° |
| 2026-05-05 13:56 | 14.11942 | 80.89768 | 25330 ft | 488 kts | 32° |
| 2026-05-05 13:56 | 14.14778 | 80.91617 | 25702 ft | 491 kts | 32° |
| 2026-05-05 13:57 | 14.17671 | 80.93505 | 26065 ft | 493 kts | 32° |
| 2026-05-05 13:57 | 14.20575 | 80.95401 | 26486 ft | 494 kts | 32° |
| 2026-05-05 13:57 | 14.23477 | 80.97295 | 26996 ft | 493 kts | 32° |
| 2026-05-05 13:57 | 14.26371 | 80.99185 | 27500 ft | 492 kts | 32° |
| 2026-05-05 13:58 | 14.29262 | 81.01074 | 28011 ft | 491 kts | 32° |
| 2026-05-05 13:58 | 14.32151 | 81.02963 | 28390 ft | 494 kts | 32° |
| 2026-05-05 13:58 | 14.38012 | 81.06799 | 29222 ft | 494 kts | 32° |
| 2026-05-05 13:59 | 14.43708 | 81.10528 | 30470 ft | 487 kts | 32° |
| 2026-05-05 13:59 | 14.46564 | 81.12399 | 31081 ft | 485 kts | 32° |
| 2026-05-05 14:00 | 14.52249 | 81.16124 | 32225 ft | 483 kts | 32° |
| 2026-05-05 14:00 | 14.54125 | 81.17354 | 32603 ft | 482 kts | 32° |
| 2026-05-05 14:00 | 14.57904 | 81.19831 | 33371 ft | 480 kts | 32° |
| 2026-05-05 14:00 | 14.60721 | 81.21678 | 33906 ft | 479 kts | 32° |
| 2026-05-05 14:01 | 14.63531 | 81.23522 | 34387 ft | 478 kts | 32° |
| 2026-05-05 14:01 | 14.66312 | 81.25348 | 34597 ft | 484 kts | 32° |
| 2026-05-05 14:01 | 14.69184 | 81.27234 | 34610 ft | 495 kts | 32° |
| 2026-05-05 14:01 | 14.72121 | 81.29162 | 34619 ft | 505 kts | 32° |
| 2026-05-05 14:02 | 14.78154 | 81.33124 | 34623 ft | 519 kts | 32° |
| 2026-05-05 14:02 | 14.84253 | 81.37131 | 34622 ft | 519 kts | 32° |
| 2026-05-05 14:03 | 14.90357 | 81.41143 | 34625 ft | 520 kts | 32° |
| 2026-05-05 14:03 | 14.96416 | 81.45128 | 34812 ft | 510 kts | 32° |
| 2026-05-05 14:04 | 14.99316 | 81.47038 | 36299 ft | 484 kts | 32° |
| 2026-05-05 14:04 | 15.02085 | 81.48863 | 37638 ft | 460 kts | 32° |
| 2026-05-05 14:04 | 15.04757 | 81.50624 | 37991 ft | 461 kts | 32° |
| 2026-05-05 14:04 | 15.07392 | 81.52365 | 38752 ft | 446 kts | 32° |
| 2026-05-05 14:05 | 15.12791 | 81.55926 | 37686 ft | 486 kts | 32° |
| 2026-05-05 14:05 | 15.15686 | 81.57834 | 37331 ft | 502 kts | 32° |
| 2026-05-05 14:05 | 15.18674 | 81.59804 | 37057 ft | 514 kts | 32° |
| 2026-05-05 14:06 | 15.21648 | 81.61766 | 36941 ft | 514 kts | 32° |
| 2026-05-05 14:06 | 15.24663 | 81.63755 | 36880 ft | 514 kts | 32° |
| 2026-05-05 14:06 | 15.30691 | 81.67734 | 36859 ft | 514 kts | 32° |
| 2026-05-05 14:07 | 15.36721 | 81.71718 | 36856 ft | 514 kts | 32° |
| 2026-05-05 14:07 | 15.42754 | 81.75708 | 36852 ft | 514 kts | 32° |
| 2026-05-05 14:08 | 15.48746 | 81.79674 | 36856 ft | 515 kts | 32° |
| 2026-05-05 14:08 | 15.54789 | 81.83676 | 36853 ft | 515 kts | 32° |
| 2026-05-05 14:09 | 15.60835 | 81.87685 | 36632 ft | 518 kts | 32° |
| 2026-05-05 14:09 | 15.66878 | 81.91695 | 36784 ft | 515 kts | 32° |
| 2026-05-05 14:10 | 15.72865 | 81.95673 | 36838 ft | 515 kts | 32° |
| 2026-05-05 14:10 | 15.78892 | 81.99683 | 36848 ft | 515 kts | 32° |
| 2026-05-05 14:11 | 15.84922 | 82.03694 | 36850 ft | 515 kts | 31° |
| 2026-05-05 14:11 | 15.90971 | 82.07683 | 36853 ft | 515 kts | 31° |
| 2026-05-05 14:12 | 15.97022 | 82.11667 | 36853 ft | 515 kts | 31° |
| 2026-05-05 14:12 | 16.03034 | 82.15630 | 36856 ft | 515 kts | 31° |
| 2026-05-05 14:13 | 16.09089 | 82.19628 | 36856 ft | 516 kts | 31° |
| 2026-05-05 14:13 | 16.15148 | 82.23634 | 36855 ft | 516 kts | 31° |
| 2026-05-05 14:14 | 16.21206 | 82.27644 | 36856 ft | 516 kts | 31° |
| 2026-05-05 14:14 | 16.27227 | 82.31634 | 36857 ft | 517 kts | 31° |
| 2026-05-05 14:15 | 16.33289 | 82.35656 | 36858 ft | 517 kts | 31° |
| 2026-05-05 14:15 | 16.39356 | 82.39687 | 36859 ft | 518 kts | 31° |
| 2026-05-05 14:16 | 16.43801 | 82.42641 | 36858 ft | 517 kts | 31° |
| 2026-05-05 14:16 | 16.44344 | 82.43002 | 36858 ft | 517 kts | 31° |
| 2026-05-05 14:17 | 16.50407 | 82.47035 | 36855 ft | 517 kts | 31° |
| 2026-05-05 14:17 | 16.53413 | 82.49037 | 36855 ft | 517 kts | 31° |
| 2026-05-05 14:18 | 16.55269 | 82.50273 | 36858 ft | 517 kts | 31° |
| 2026-05-05 14:19 | 16.58850 | 82.52660 | 36857 ft | 517 kts | 31° |
| 2026-05-05 14:19 | 16.64281 | 82.56282 | 36861 ft | 516 kts | 31° |
| 2026-05-05 14:20 | 16.70331 | 82.60322 | 36861 ft | 517 kts | 31° |
| 2026-05-05 14:20 | 16.76380 | 82.64365 | 36860 ft | 515 kts | 31° |
| 2026-05-05 14:21 | 16.79292 | 82.66313 | 36858 ft | 492 kts | 31° |
| 2026-05-05 14:21 | 16.82102 | 82.68195 | 36858 ft | 469 kts | 31° |
| 2026-05-05 14:21 | 16.84788 | 82.69996 | 36854 ft | 449 kts | 31° |
| 2026-05-05 14:21 | 16.87365 | 82.71724 | 36859 ft | 433 kts | 31° |
| 2026-05-05 14:22 | 16.92505 | 82.75163 | 36866 ft | 448 kts | 31° |
| 2026-05-05 14:22 | 16.97868 | 82.78746 | 36868 ft | 467 kts | 31° |
| 2026-05-05 14:23 | 17.03414 | 82.82457 | 36868 ft | 485 kts | 31° |
| 2026-05-05 14:23 | 17.09202 | 82.86336 | 36865 ft | 503 kts | 31° |
| 2026-05-05 14:24 | 17.15181 | 82.90351 | 36859 ft | 515 kts | 31° |
| 2026-05-05 14:24 | 17.21205 | 82.94405 | 36861 ft | 513 kts | 31° |
| 2026-05-05 14:25 | 17.27103 | 82.98381 | 36863 ft | 501 kts | 31° |
| 2026-05-05 14:25 | 17.32930 | 83.02314 | 36865 ft | 499 kts | 31° |
| 2026-05-05 14:26 | 17.38788 | 83.06265 | 36865 ft | 502 kts | 31° |
| 2026-05-05 14:26 | 17.44660 | 83.10230 | 36865 ft | 501 kts | 31° |
| 2026-05-05 14:27 | 17.50477 | 83.14162 | 36864 ft | 501 kts | 31° |
| 2026-05-05 14:27 | 17.56341 | 83.18129 | 36863 ft | 503 kts | 31° |
| 2026-05-05 14:28 | 17.62222 | 83.22114 | 36858 ft | 503 kts | 31° |
| 2026-05-05 14:28 | 17.68067 | 83.26138 | 36859 ft | 503 kts | 32° |
| 2026-05-05 14:29 | 17.73877 | 83.30224 | 36858 ft | 503 kts | 32° |
| 2026-05-05 14:29 | 17.79650 | 83.34308 | 36861 ft | 504 kts | 32° |
| 2026-05-05 14:30 | 17.85467 | 83.38434 | 36866 ft | 505 kts | 32° |
| 2026-05-05 14:30 | 17.91277 | 83.42562 | 36873 ft | 504 kts | 32° |
| 2026-05-05 14:31 | 17.97090 | 83.46695 | 36879 ft | 505 kts | 32° |
| 2026-05-05 14:31 | 18.02873 | 83.50812 | 36882 ft | 505 kts | 32° |
| 2026-05-05 14:32 | 18.08687 | 83.54956 | 36883 ft | 505 kts | 32° |
| 2026-05-05 14:32 | 18.14501 | 83.59103 | 36883 ft | 506 kts | 32° |
| 2026-05-05 14:33 | 18.20323 | 83.63258 | 36886 ft | 506 kts | 32° |
| 2026-05-05 14:33 | 18.26105 | 83.67388 | 36884 ft | 506 kts | 32° |
| 2026-05-05 14:34 | 18.31934 | 83.71556 | 36885 ft | 506 kts | 32° |
| 2026-05-05 14:34 | 18.37759 | 83.75724 | 36884 ft | 506 kts | 32° |
| 2026-05-05 14:35 | 18.43583 | 83.79896 | 36886 ft | 506 kts | 32° |
| 2026-05-05 14:35 | 18.49394 | 83.84064 | 36887 ft | 505 kts | 32° |
| 2026-05-05 14:36 | 18.55184 | 83.88179 | 36886 ft | 506 kts | 31° |
| 2026-05-05 14:36 | 18.61027 | 83.92309 | 36888 ft | 505 kts | 31° |
| 2026-05-05 14:37 | 18.66864 | 83.96433 | 36892 ft | 505 kts | 31° |
| 2026-05-05 14:37 | 18.72706 | 84.00562 | 36895 ft | 506 kts | 31° |
| 2026-05-05 14:38 | 18.78513 | 84.04673 | 36894 ft | 506 kts | 31° |
| 2026-05-05 14:38 | 18.84355 | 84.08813 | 36900 ft | 506 kts | 31° |
| 2026-05-05 14:39 | 18.90201 | 84.12962 | 36900 ft | 507 kts | 31° |
| 2026-05-05 14:39 | 18.96057 | 84.17121 | 36903 ft | 507 kts | 31° |
| 2026-05-05 14:40 | 19.01869 | 84.21253 | 36898 ft | 507 kts | 31° |
| 2026-05-05 14:40 | 19.07724 | 84.25419 | 36899 ft | 508 kts | 31° |
| 2026-05-05 14:41 | 19.13587 | 84.29592 | 36904 ft | 509 kts | 31° |
| 2026-05-05 14:41 | 19.19450 | 84.33771 | 36899 ft | 507 kts | 31° |
| 2026-05-05 14:42 | 19.25273 | 84.37928 | 36896 ft | 509 kts | 31° |
| 2026-05-05 14:42 | 19.31142 | 84.42122 | 36898 ft | 510 kts | 31° |
| 2026-05-05 14:43 | 19.37009 | 84.46313 | 36882 ft | 508 kts | 31° |
| 2026-05-05 14:43 | 19.42859 | 84.50498 | 36879 ft | 508 kts | 31° |
| 2026-05-05 14:44 | 19.48686 | 84.54671 | 36873 ft | 509 kts | 31° |
| 2026-05-05 14:44 | 19.54546 | 84.58871 | 36874 ft | 508 kts | 31° |
| 2026-05-05 14:45 | 19.60398 | 84.63071 | 36870 ft | 507 kts | 31° |
| 2026-05-05 14:45 | 19.66268 | 84.67227 | 36665 ft | 507 kts | 30° |
| 2026-05-05 14:46 | 19.69226 | 84.69254 | 36293 ft | 505 kts | 29° |
| 2026-05-05 14:46 | 19.72186 | 84.71262 | 36063 ft | 505 kts | 29° |
| 2026-05-05 14:46 | 19.75134 | 84.73255 | 35959 ft | 500 kts | 29° |
| 2026-05-05 14:46 | 19.78016 | 84.75200 | 35914 ft | 496 kts | 29° |
| 2026-05-05 14:47 | 19.83852 | 84.79132 | 35885 ft | 498 kts | 28° |
| 2026-05-05 14:47 | 19.89720 | 84.83083 | 35879 ft | 500 kts | 29° |
| 2026-05-05 14:48 | 19.95590 | 84.87042 | 35879 ft | 498 kts | 28° |
| 2026-05-05 14:48 | 20.01434 | 84.90989 | 35877 ft | 498 kts | 29° |
| 2026-05-05 14:49 | 20.07246 | 84.94917 | 35873 ft | 499 kts | 28° |
| 2026-05-05 14:49 | 20.13098 | 84.98878 | 35873 ft | 498 kts | 29° |
| 2026-05-05 14:50 | 20.18942 | 85.02837 | 35870 ft | 497 kts | 28° |
| 2026-05-05 14:50 | 20.24781 | 85.06796 | 35871 ft | 498 kts | 28° |
| 2026-05-05 14:51 | 20.30595 | 85.10742 | 35870 ft | 499 kts | 28° |
| 2026-05-05 14:51 | 20.36440 | 85.14714 | 35870 ft | 498 kts | 28° |
| 2026-05-05 14:52 | 20.42287 | 85.18691 | 35874 ft | 499 kts | 28° |
| 2026-05-05 14:52 | 20.48144 | 85.22678 | 35873 ft | 500 kts | 28° |
| 2026-05-05 14:53 | 20.54007 | 85.26672 | 35880 ft | 500 kts | 28° |
| 2026-05-05 14:53 | 20.59822 | 85.30640 | 35875 ft | 499 kts | 28° |
| 2026-05-05 14:54 | 20.65676 | 85.34637 | 35882 ft | 501 kts | 28° |
| 2026-05-05 14:54 | 20.71550 | 85.38652 | 35883 ft | 501 kts | 28° |
| 2026-05-05 14:55 | 20.77417 | 85.42669 | 35881 ft | 501 kts | 28° |
| 2026-05-05 14:55 | 20.83329 | 85.46622 | 35816 ft | 500 kts | 21° |
| 2026-05-05 14:56 | 20.86570 | 85.47743 | 35198 ft | 493 kts | 2° |
| 2026-05-05 14:56 | 20.89944 | 85.47918 | 34531 ft | 480 kts | 354° |
| 2026-05-05 14:56 | 20.92187 | 85.47862 | 34074 ft | 474 kts | 353° |
| 2026-05-05 14:56 | 20.96502 | 85.47631 | 33097 ft | 464 kts | 351° |
| 2026-05-05 14:57 | 20.99703 | 85.47412 | 32356 ft | 458 kts | 351° |
| 2026-05-05 14:57 | 21.02860 | 85.47179 | 31635 ft | 452 kts | 351° |
| 2026-05-05 14:57 | 21.04926 | 85.47024 | 31177 ft | 448 kts | 351° |
| 2026-05-05 14:57 | 21.08014 | 85.46793 | 30480 ft | 442 kts | 351° |
| 2026-05-05 14:58 | 21.12053 | 85.46496 | 29516 ft | 436 kts | 351° |
| 2026-05-05 14:58 | 21.14086 | 85.46351 | 28985 ft | 432 kts | 351° |
| 2026-05-05 14:58 | 21.17074 | 85.46143 | 28211 ft | 428 kts | 351° |
| 2026-05-05 14:58 | 21.20027 | 85.45943 | 27472 ft | 423 kts | 351° |
| 2026-05-05 14:59 | 21.22915 | 85.45752 | 26761 ft | 419 kts | 351° |
| 2026-05-05 14:59 | 21.25812 | 85.45565 | 26058 ft | 415 kts | 352° |
| 2026-05-05 14:59 | 21.28686 | 85.45383 | 25383 ft | 411 kts | 352° |
| 2026-05-05 14:59 | 21.31528 | 85.45203 | 24722 ft | 408 kts | 352° |
| 2026-05-05 15:00 | 21.34318 | 85.45029 | 24399 ft | 395 kts | 352° |
| 2026-05-05 15:00 | 21.37045 | 85.44860 | 24155 ft | 394 kts | 351° |
| 2026-05-05 15:00 | 21.39800 | 85.44685 | 24037 ft | 399 kts | 351° |
| 2026-05-05 15:00 | 21.42566 | 85.44507 | 23984 ft | 401 kts | 351° |
| 2026-05-05 15:01 | 21.44400 | 85.44390 | 23967 ft | 401 kts | 351° |
| 2026-05-05 15:01 | 21.47230 | 85.44211 | 23949 ft | 401 kts | 351° |
| 2026-05-05 15:01 | 21.50050 | 85.44033 | 23939 ft | 401 kts | 351° |
| 2026-05-05 15:01 | 21.52890 | 85.43855 | 23942 ft | 401 kts | 352° |
| 2026-05-05 15:02 | 21.55606 | 85.43691 | 23939 ft | 382 kts | 351° |
| 2026-05-05 15:02 | 21.58188 | 85.43542 | 23933 ft | 361 kts | 351° |
| 2026-05-05 15:02 | 21.60650 | 85.43402 | 23938 ft | 349 kts | 351° |
| 2026-05-05 15:02 | 21.63087 | 85.43254 | 23942 ft | 351 kts | 351° |
| 2026-05-05 15:03 | 21.65546 | 85.43099 | 23942 ft | 353 kts | 351° |
| 2026-05-05 15:03 | 21.67981 | 85.42943 | 23942 ft | 353 kts | 351° |
| 2026-05-05 15:03 | 21.70448 | 85.42784 | 23944 ft | 352 kts | 351° |
| 2026-05-05 15:03 | 21.72867 | 85.42629 | 23943 ft | 352 kts | 351° |
| 2026-05-05 15:04 | 21.75325 | 85.42473 | 23945 ft | 355 kts | 351° |
| 2026-05-05 15:04 | 21.77784 | 85.42316 | 23946 ft | 353 kts | 351° |
| 2026-05-05 15:04 | 21.80247 | 85.42161 | 23949 ft | 352 kts | 351° |
| 2026-05-05 15:04 | 21.82684 | 85.42008 | 23948 ft | 353 kts | 351° |
| 2026-05-05 15:05 | 21.87615 | 85.41697 | 23948 ft | 353 kts | 351° |
| 2026-05-05 15:05 | 21.89548 | 85.41576 | 23949 ft | 353 kts | 351° |
| 2026-05-05 15:05 | 21.92058 | 85.41419 | 23947 ft | 353 kts | 351° |
| 2026-05-05 15:06 | 21.94507 | 85.41266 | 23945 ft | 352 kts | 351° |
| 2026-05-05 15:06 | 21.96959 | 85.41113 | 23945 ft | 353 kts | 351° |
| 2026-05-05 15:06 | 21.99419 | 85.40958 | 23943 ft | 354 kts | 351° |
| 2026-05-05 15:06 | 22.01882 | 85.40804 | 23943 ft | 354 kts | 351° |
| 2026-05-05 15:07 | 22.04339 | 85.40650 | 23949 ft | 353 kts | 351° |
| 2026-05-05 15:07 | 22.06792 | 85.40498 | 23947 ft | 353 kts | 350° |
| 2026-05-05 15:07 | 22.09248 | 85.40344 | 23945 ft | 354 kts | 350° |
| 2026-05-05 15:07 | 22.11679 | 85.40192 | 23947 ft | 355 kts | 350° |
| 2026-05-05 15:08 | 22.14143 | 85.40037 | 23940 ft | 354 kts | 351° |
| 2026-05-05 15:08 | 22.16596 | 85.39883 | 23944 ft | 354 kts | 350° |
| 2026-05-05 15:08 | 22.19060 | 85.39729 | 23941 ft | 354 kts | 350° |
| 2026-05-05 15:08 | 22.21521 | 85.39574 | 23803 ft | 354 kts | 350° |
| 2026-05-05 15:09 | 22.23977 | 85.39419 | 23416 ft | 352 kts | 351° |
| 2026-05-05 15:09 | 22.26412 | 85.39264 | 22860 ft | 349 kts | 351° |
| 2026-05-05 15:09 | 22.28797 | 85.39111 | 22325 ft | 347 kts | 351° |
| 2026-05-05 15:09 | 22.31194 | 85.38955 | 21815 ft | 344 kts | 351° |
| 2026-05-05 15:10 | 22.33568 | 85.38801 | 21322 ft | 341 kts | 351° |
| 2026-05-05 15:10 | 22.35923 | 85.38649 | 20847 ft | 337 kts | 351° |
| 2026-05-05 15:10 | 22.38262 | 85.38498 | 20356 ft | 334 kts | 352° |
| 2026-05-05 15:10 | 22.40573 | 85.38349 | 19889 ft | 332 kts | 352° |
| 2026-05-05 15:11 | 22.42867 | 85.38201 | 19416 ft | 329 kts | 352° |
| 2026-05-05 15:11 | 22.45113 | 85.38057 | 18988 ft | 326 kts | 352° |
| 2026-05-05 15:11 | 22.47368 | 85.37914 | 18549 ft | 324 kts | 352° |
| 2026-05-05 15:11 | 22.49607 | 85.37768 | 18082 ft | 321 kts | 353° |
| 2026-05-05 15:12 | 22.51827 | 85.37625 | 17587 ft | 318 kts | 353° |
| 2026-05-05 15:12 | 22.54030 | 85.37485 | 17104 ft | 315 kts | 353° |
| 2026-05-05 15:12 | 22.56206 | 85.37347 | 16636 ft | 312 kts | 353° |
| 2026-05-05 15:12 | 22.58367 | 85.37210 | 16178 ft | 310 kts | 353° |
| 2026-05-05 15:13 | 22.60508 | 85.37074 | 15722 ft | 307 kts | 353° |
| 2026-05-05 15:13 | 22.62605 | 85.36941 | 15279 ft | 304 kts | 354° |
| 2026-05-05 15:13 | 22.64710 | 85.36807 | 14832 ft | 302 kts | 354° |
| 2026-05-05 15:13 | 22.66799 | 85.36672 | 14376 ft | 300 kts | 354° |
| 2026-05-05 15:14 | 22.68873 | 85.36539 | 13944 ft | 297 kts | 354° |
| 2026-05-05 15:14 | 22.70931 | 85.36410 | 13495 ft | 295 kts | 354° |
| 2026-05-05 15:14 | 22.72966 | 85.36282 | 13026 ft | 292 kts | 354° |
| 2026-05-05 15:14 | 22.74988 | 85.36155 | 12560 ft | 290 kts | 354° |
| 2026-05-05 15:15 | 22.76998 | 85.36029 | 12106 ft | 288 kts | 354° |
| 2026-05-05 15:15 | 22.78963 | 85.35908 | 11674 ft | 286 kts | 355° |
| 2026-05-05 15:15 | 22.80948 | 85.35782 | 11097 ft | 288 kts | 355° |
| 2026-05-05 15:15 | 22.82955 | 85.35654 | 10593 ft | 288 kts | 355° |
| 2026-05-05 15:16 | 22.84969 | 85.35526 | 10264 ft | 292 kts | 355° |
| 2026-05-05 15:16 | 22.86968 | 85.35401 | 10109 ft | 283 kts | 355° |
| 2026-05-05 15:16 | 22.88931 | 85.35279 | 10033 ft | 284 kts | 355° |
| 2026-05-05 15:16 | 22.90907 | 85.35153 | 10009 ft | 284 kts | 355° |
| 2026-05-05 15:17 | 22.92878 | 85.35028 | 9996 ft | 283 kts | 355° |
| 2026-05-05 15:17 | 22.94847 | 85.34904 | 9983 ft | 285 kts | 355° |
| 2026-05-05 15:17 | 22.96824 | 85.34778 | 9983 ft | 284 kts | 355° |
| 2026-05-05 15:17 | 22.98761 | 85.34656 | 10030 ft | 282 kts | 355° |
| 2026-05-05 15:18 | 23.00734 | 85.34531 | 10103 ft | 286 kts | 355° |
| 2026-05-05 15:18 | 23.02719 | 85.34404 | 10135 ft | 285 kts | 355° |
| 2026-05-05 15:18 | 23.04700 | 85.34277 | 10149 ft | 286 kts | 355° |
| 2026-05-05 15:18 | 23.06688 | 85.34151 | 10156 ft | 287 kts | 355° |
| 2026-05-05 15:19 | 23.08677 | 85.34025 | 10166 ft | 285 kts | 355° |
| 2026-05-05 15:19 | 23.10657 | 85.33898 | 10169 ft | 286 kts | 355° |
| 2026-05-05 15:19 | 23.12645 | 85.33771 | 10167 ft | 286 kts | 355° |
| 2026-05-05 15:19 | 23.14602 | 85.33647 | 10173 ft | 286 kts | 355° |
| 2026-05-05 15:20 | 23.16593 | 85.33520 | 10171 ft | 287 kts | 355° |
| 2026-05-05 15:20 | 23.18583 | 85.33393 | 10173 ft | 286 kts | 355° |
| 2026-05-05 15:20 | 23.20567 | 85.33265 | 10173 ft | 285 kts | 355° |
| 2026-05-05 15:20 | 23.22551 | 85.33137 | 10174 ft | 286 kts | 355° |
| 2026-05-05 15:21 | 23.24537 | 85.33013 | 10177 ft | 287 kts | 355° |
| 2026-05-05 15:21 | 23.26527 | 85.32887 | 10173 ft | 286 kts | 355° |
| 2026-05-05 15:21 | 23.28504 | 85.32696 | 10178 ft | 285 kts | 351° |
| 2026-05-05 15:21 | 23.30441 | 85.32376 | 10175 ft | 285 kts | 348° |
| 2026-05-05 15:22 | 23.32385 | 85.31985 | 10173 ft | 284 kts | 347° |
| 2026-05-05 15:22 | 23.34319 | 85.31553 | 10176 ft | 284 kts | 346° |
| 2026-05-05 15:22 | 23.36249 | 85.31094 | 10173 ft | 284 kts | 346° |
| 2026-05-05 15:22 | 23.38172 | 85.30618 | 10173 ft | 283 kts | 345° |
| 2026-05-05 15:23 | 23.40167 | 85.30109 | 10177 ft | 307 kts | 345° |
| 2026-05-05 15:23 | 23.42321 | 85.29547 | 10175 ft | 324 kts | 345° |
| 2026-05-05 15:23 | 23.44511 | 85.28972 | 10175 ft | 327 kts | 345° |
| 2026-05-05 15:23 | 23.46709 | 85.28393 | 10174 ft | 323 kts | 345° |
| 2026-05-05 15:24 | 23.48861 | 85.27825 | 10171 ft | 323 kts | 345° |
| 2026-05-05 15:24 | 23.51049 | 85.27248 | 10175 ft | 323 kts | 345° |
| 2026-05-05 15:24 | 23.53224 | 85.26673 | 10172 ft | 321 kts | 345° |
| 2026-05-05 15:24 | 23.55399 | 85.26096 | 10175 ft | 322 kts | 344° |
| 2026-05-05 15:25 | 23.57580 | 85.25517 | 10172 ft | 322 kts | 345° |
| 2026-05-05 15:25 | 23.59752 | 85.24939 | 10171 ft | 322 kts | 345° |
| 2026-05-05 15:25 | 23.61924 | 85.24360 | 10169 ft | 321 kts | 345° |
| 2026-05-05 15:25 | 23.64096 | 85.23781 | 10170 ft | 322 kts | 345° |
| 2026-05-05 15:26 | 23.66244 | 85.23209 | 10165 ft | 322 kts | 345° |
| 2026-05-05 15:26 | 23.68419 | 85.22630 | 10165 ft | 321 kts | 345° |
| 2026-05-05 15:26 | 23.70589 | 85.22052 | 10162 ft | 321 kts | 345° |
| 2026-05-05 15:26 | 23.72759 | 85.21474 | 10163 ft | 321 kts | 345° |
| 2026-05-05 15:27 | 23.74928 | 85.20896 | 10158 ft | 321 kts | 345° |
| 2026-05-05 15:27 | 23.77098 | 85.20318 | 10151 ft | 321 kts | 345° |
| 2026-05-05 15:27 | 23.79261 | 85.19739 | 10142 ft | 320 kts | 345° |
| 2026-05-05 15:27 | 23.81423 | 85.19163 | 10147 ft | 320 kts | 345° |
| 2026-05-05 15:28 | 23.83556 | 85.18595 | 10147 ft | 320 kts | 345° |
| 2026-05-05 15:28 | 23.85721 | 85.18017 | 10150 ft | 320 kts | 345° |
| 2026-05-05 15:28 | 23.87880 | 85.17440 | 10145 ft | 319 kts | 345° |
| 2026-05-05 15:28 | 23.90040 | 85.16865 | 10145 ft | 320 kts | 345° |
| 2026-05-05 15:29 | 23.92197 | 85.16289 | 10140 ft | 320 kts | 345° |
| 2026-05-05 15:29 | 23.94366 | 85.15709 | 10139 ft | 325 kts | 345° |
| 2026-05-05 15:29 | 23.96576 | 85.15118 | 10136 ft | 326 kts | 345° |
| 2026-05-05 15:29 | 23.98773 | 85.14531 | 10137 ft | 326 kts | 345° |
| 2026-05-05 15:30 | 24.00949 | 85.13950 | 10140 ft | 326 kts | 345° |
| 2026-05-05 15:30 | 24.03150 | 85.13363 | 10137 ft | 325 kts | 345° |
| 2026-05-05 15:30 | 24.05348 | 85.12777 | 10132 ft | 325 kts | 345° |
| 2026-05-05 15:30 | 24.07549 | 85.12190 | 10129 ft | 326 kts | 345° |
| 2026-05-05 15:31 | 24.09749 | 85.11603 | 10120 ft | 325 kts | 345° |
| 2026-05-05 15:31 | 24.11947 | 85.11016 | 10125 ft | 325 kts | 345° |
| 2026-05-05 15:31 | 24.14147 | 85.10429 | 10116 ft | 326 kts | 345° |
| 2026-05-05 15:31 | 24.16351 | 85.09842 | 10118 ft | 326 kts | 345° |
| 2026-05-05 15:32 | 24.18520 | 85.09263 | 10111 ft | 325 kts | 345° |
| 2026-05-05 15:32 | 24.20720 | 85.08675 | 10107 ft | 326 kts | 345° |
| 2026-05-05 15:32 | 24.22921 | 85.08085 | 10107 ft | 326 kts | 345° |
| 2026-05-05 15:32 | 24.25119 | 85.07497 | 10101 ft | 325 kts | 345° |
| 2026-05-05 15:33 | 24.27317 | 85.06909 | 10097 ft | 326 kts | 345° |
| 2026-05-05 15:33 | 24.29522 | 85.06319 | 10100 ft | 326 kts | 345° |
| 2026-05-05 15:33 | 24.31724 | 85.05730 | 10097 ft | 325 kts | 345° |
| 2026-05-05 15:33 | 24.33924 | 85.05141 | 10101 ft | 326 kts | 345° |
| 2026-05-05 15:34 | 24.36135 | 85.04549 | 10094 ft | 327 kts | 345° |
| 2026-05-05 15:34 | 24.38310 | 85.03966 | 10086 ft | 326 kts | 345° |
| 2026-05-05 15:34 | 24.40497 | 85.03380 | 10078 ft | 327 kts | 345° |
| 2026-05-05 15:34 | 24.42723 | 85.02782 | 10074 ft | 327 kts | 345° |
| 2026-05-05 15:35 | 24.44926 | 85.02191 | 10065 ft | 326 kts | 345° |
| 2026-05-05 15:35 | 24.47134 | 85.01599 | 10060 ft | 327 kts | 345° |
| 2026-05-05 15:35 | 24.49344 | 85.01005 | 10053 ft | 327 kts | 345° |
| 2026-05-05 15:35 | 24.51548 | 85.00414 | 10045 ft | 326 kts | 345° |
| 2026-05-05 15:36 | 24.53756 | 84.99819 | 10042 ft | 327 kts | 345° |
| 2026-05-05 15:36 | 24.55936 | 84.99233 | 10032 ft | 327 kts | 345° |
| 2026-05-05 15:36 | 24.58145 | 84.98640 | 10028 ft | 326 kts | 344° |
| 2026-05-05 15:36 | 24.60347 | 84.98048 | 10022 ft | 326 kts | 344° |
| 2026-05-05 15:37 | 24.62552 | 84.97453 | 10018 ft | 327 kts | 344° |
| 2026-05-05 15:37 | 24.64766 | 84.96857 | 10012 ft | 327 kts | 344° |
| 2026-05-05 15:37 | 24.66973 | 84.96262 | 10009 ft | 327 kts | 344° |
| 2026-05-05 15:37 | 24.69182 | 84.95666 | 10011 ft | 327 kts | 344° |
| 2026-05-05 15:38 | 24.71425 | 84.95222 | 9921 ft | 330 kts | 354° |
| 2026-05-05 15:38 | 24.73687 | 84.95196 | 9758 ft | 328 kts | 360° |
| 2026-05-05 15:38 | 24.75966 | 84.95323 | 9587 ft | 328 kts | 2° |
| 2026-05-05 15:38 | 24.78241 | 84.95529 | 9409 ft | 328 kts | 4° |
| 2026-05-05 15:39 | 24.80509 | 84.95789 | 9230 ft | 327 kts | 5° |
| 2026-05-05 15:39 | 24.82764 | 84.96086 | 9060 ft | 326 kts | 5° |
| 2026-05-05 15:39 | 24.85022 | 84.96411 | 8884 ft | 327 kts | 6° |
| 2026-05-05 15:39 | 24.87266 | 84.96754 | 8718 ft | 325 kts | 6° |
| 2026-05-05 15:40 | 24.89505 | 84.97112 | 8549 ft | 325 kts | 7° |
| 2026-05-05 15:40 | 24.91708 | 84.97473 | 8378 ft | 325 kts | 7° |
| 2026-05-05 15:40 | 24.93942 | 84.97848 | 8209 ft | 324 kts | 7° |
| 2026-05-05 15:40 | 24.96163 | 84.98226 | 8046 ft | 323 kts | 7° |
| 2026-05-05 15:41 | 24.98381 | 84.98607 | 7867 ft | 322 kts | 7° |
| 2026-05-05 15:41 | 25.00593 | 84.98990 | 7708 ft | 322 kts | 7° |
| 2026-05-05 15:41 | 25.02807 | 84.99375 | 7535 ft | 321 kts | 7° |
| 2026-05-05 15:41 | 25.05008 | 84.99760 | 7374 ft | 320 kts | 7° |
| 2026-05-05 15:42 | 25.07208 | 85.00145 | 7210 ft | 320 kts | 7° |
| 2026-05-05 15:42 | 25.09375 | 85.00527 | 7047 ft | 320 kts | 7° |
| 2026-05-05 15:42 | 25.11568 | 85.00913 | 6880 ft | 319 kts | 8° |
| 2026-05-05 15:42 | 25.13751 | 85.01298 | 6719 ft | 318 kts | 8° |
| 2026-05-05 15:43 | 25.15933 | 85.01683 | 6557 ft | 317 kts | 8° |
| 2026-05-05 15:43 | 25.18113 | 85.02067 | 6393 ft | 317 kts | 8° |
| 2026-05-05 15:43 | 25.20286 | 85.02452 | 6220 ft | 316 kts | 8° |
| 2026-05-05 15:43 | 25.22453 | 85.02835 | 6055 ft | 315 kts | 8° |
| 2026-05-05 15:44 | 25.24588 | 85.03212 | 5886 ft | 315 kts | 8° |
| 2026-05-05 15:44 | 25.26749 | 85.03594 | 5713 ft | 314 kts | 8° |
| 2026-05-05 15:44 | 25.28901 | 85.03975 | 5532 ft | 313 kts | 8° |
| 2026-05-05 15:44 | 25.31052 | 85.04353 | 5366 ft | 313 kts | 8° |
| 2026-05-05 15:45 | 25.33200 | 85.04732 | 5196 ft | 312 kts | 8° |
| 2026-05-05 15:45 | 25.35336 | 85.05110 | 5096 ft | 310 kts | 8° |
| 2026-05-05 15:45 | 25.37472 | 85.05488 | 5050 ft | 311 kts | 8° |
| 2026-05-05 15:45 | 25.39608 | 85.05868 | 5030 ft | 311 kts | 8° |
| 2026-05-05 15:46 | 25.41742 | 85.06248 | 5021 ft | 311 kts | 8° |
| 2026-05-05 15:46 | 25.43856 | 85.06625 | 5016 ft | 311 kts | 8° |
| 2026-05-05 15:46 | 25.45989 | 85.07005 | 5016 ft | 311 kts | 8° |
| 2026-05-05 15:46 | 25.48131 | 85.07387 | 5014 ft | 312 kts | 8° |
| 2026-05-05 15:47 | 25.50271 | 85.07768 | 5014 ft | 311 kts | 8° |
| 2026-05-05 15:47 | 25.51684 | 85.08019 | 5011 ft | 311 kts | 8° |
| 2026-05-05 15:47 | 25.54547 | 85.08529 | 5011 ft | 312 kts | 8° |
| 2026-05-05 15:47 | 25.56690 | 85.08483 | 5024 ft | 310 kts | 342° |
| 2026-05-05 15:48 | 25.58610 | 85.07418 | 5024 ft | 310 kts | 327° |
| 2026-05-05 15:48 | 25.60474 | 85.06297 | 5015 ft | 309 kts | 337° |
| 2026-05-05 15:48 | 25.62489 | 85.05443 | 5010 ft | 311 kts | 339° |
| 2026-05-05 15:48 | 25.64500 | 85.04585 | 5014 ft | 309 kts | 337° |
| 2026-05-05 15:49 | 25.66469 | 85.03625 | 5012 ft | 310 kts | 333° |
| 2026-05-05 15:49 | 25.68364 | 85.02490 | 5005 ft | 310 kts | 327° |
| 2026-05-05 15:49 | 25.70033 | 85.00996 | 5011 ft | 309 kts | 313° |
| 2026-05-05 15:49 | 25.71261 | 84.99063 | 5014 ft | 307 kts | 295° |
| 2026-05-05 15:50 | 25.72035 | 84.96858 | 5012 ft | 307 kts | 285° |
| 2026-05-05 15:50 | 25.72461 | 84.94578 | 5009 ft | 306 kts | 276° |
| 2026-05-05 15:50 | 25.72466 | 84.92225 | 5008 ft | 306 kts | 263° |
| 2026-05-05 15:50 | 25.71986 | 84.89937 | 5009 ft | 305 kts | 248° |
| 2026-05-05 15:51 | 25.71012 | 84.87855 | 5006 ft | 305 kts | 234° |
| 2026-05-05 15:51 | 25.69585 | 84.86126 | 5004 ft | 305 kts | 220° |
| 2026-05-05 15:51 | 25.67827 | 84.84878 | 5003 ft | 292 kts | 205° |
| 2026-05-05 15:51 | 25.65995 | 84.84149 | 5006 ft | 269 kts | 191° |
| 2026-05-05 15:52 | 25.64161 | 84.84140 | 4858 ft | 263 kts | 173° |
| 2026-05-05 15:52 | 25.62396 | 84.84475 | 4739 ft | 255 kts | 168° |
| 2026-05-05 15:52 | 25.60731 | 84.84940 | 4654 ft | 240 kts | 165° |
| 2026-05-05 15:52 | 25.59173 | 84.85469 | 4499 ft | 229 kts | 162° |
| 2026-05-05 15:53 | 25.57697 | 84.86039 | 4280 ft | 222 kts | 160° |
| 2026-05-05 15:53 | 25.56268 | 84.86633 | 4038 ft | 217 kts | 159° |
| 2026-05-05 15:53 | 25.54887 | 84.87235 | 3884 ft | 205 kts | 159° |
| 2026-05-05 15:53 | 25.53603 | 84.87807 | 3684 ft | 197 kts | 158° |
| 2026-05-05 15:54 | 25.52498 | 84.88624 | 3477 ft | 193 kts | 123° |
| 2026-05-05 15:54 | 25.52290 | 84.90050 | 3278 ft | 196 kts | 77° |
| 2026-05-05 15:54 | 25.52722 | 84.91467 | 2978 ft | 197 kts | 69° |
| 2026-05-05 15:54 | 25.53248 | 84.92842 | 2766 ft | 193 kts | 67° |
| 2026-05-05 15:55 | 25.53808 | 84.94224 | 2410 ft | 197 kts | 67° |
| 2026-05-05 15:55 | 25.54366 | 84.95599 | 2057 ft | 194 kts | 67° |
| 2026-05-05 15:55 | 25.54897 | 84.96972 | 1671 ft | 195 kts | 69° |
| 2026-05-05 15:55 | 25.55409 | 84.98367 | 1290 ft | 195 kts | 70° |
| 2026-05-05 15:56 | 25.55887 | 84.99745 | 1072 ft | 187 kts | 70° |
| 2026-05-05 15:56 | 25.56313 | 85.01062 | 988 ft | 175 kts | 72° |
| 2026-05-05 15:56 | 25.56692 | 85.02327 | 962 ft | 173 kts | 72° |
| 2026-05-05 15:56 | 25.57115 | 85.03590 | 761 ft | 177 kts | 68° |
| 2026-05-05 15:57 | 25.57564 | 85.04805 | 623 ft | 167 kts | 66° |
| 2026-05-05 15:57 | 25.58032 | 85.05980 | 554 ft | 169 kts | 63° |
| 2026-05-05 15:57 | 25.58515 | 85.07176 | 448 ft | 171 kts | 68° |
| 2026-05-05 15:57 | 25.58966 | 85.08404 | 193 ft | 170 kts | 63° |
| 2026-05-05 15:58 | 25.59299 | 85.09324 | 183 ft | 75 kts | 68° |
| 2026-05-05 15:58 | 25.59354 | 85.09486 | 183 ft | 2 kts | 69° |
| 2026-05-05 15:58 | 25.59351 | 85.09476 | 183 ft | 0 kts | 71° |
| 2026-05-05 15:58 | 25.59351 | 85.09475 | 183 ft | 0 kts | 71° |
| 2026-05-05 15:59 | 25.59362 | 85.09502 | 184 ft | 9 kts | 65° |
| 2026-05-05 15:59 | 25.59400 | 85.09596 | 188 ft | 17 kts | 68° |
| 2026-05-05 15:59 | 25.59437 | 85.09651 | 192 ft | 4 kts | 108° |
| 2026-05-05 15:59 | 25.59409 | 85.09637 | 194 ft | 8 kts | 240° |
| 2026-05-05 16:00 | 25.59374 | 85.09545 | 199 ft | 18 kts | 244° |
| 2026-05-05 16:00 | 25.59311 | 85.09386 | 183 ft | 27 kts | 245° |
| 2026-05-05 16:00 | 25.59269 | 85.09229 | 184 ft | 20 kts | 264° |
| 2026-05-05 16:00 | 25.59336 | 85.09166 | 183 ft | 10 kts | 338° |
| 2026-05-05 16:01 | 25.59385 | 85.09143 | 184 ft | 5 kts | 336° |
| 2026-05-05 16:01 | 25.59402 | 85.09135 | 189 ft | 0 kts | 337° |